createdAt,value
2022-10-03T00:00:29.306Z,0.80
2022-10-03T00:03:15.208Z,0.80
2022-10-03T00:05:42.649Z,0.80
2022-10-03T00:08:15.877Z,0.80
2022-10-03T00:10:53.061Z,0.70
2022-10-03T00:13:20.323Z,0.87
2022-10-03T00:15:54.133Z,0.80
2022-10-03T00:18:47.470Z,0.90
2022-10-03T00:21:14.725Z,0.70
2022-10-03T00:23:46.646Z,0.70
2022-10-03T00:26:32.583Z,0.73
2022-10-03T00:29:07.707Z,1.00
2022-10-03T00:31:43.411Z,0.80
2022-10-03T00:34:14.150Z,0.83
2022-10-03T00:36:44.695Z,0.70
2022-10-03T00:39:18.824Z,0.90
2022-10-03T00:41:53.775Z,0.90
2022-10-03T00:44:43.602Z,0.90
2022-10-03T00:47:10.906Z,0.80
2022-10-03T00:49:47.150Z,0.90
2022-10-03T00:52:30.422Z,0.70
2022-10-03T00:55:16.207Z,0.70
2022-10-03T00:57:52.629Z,0.90
2022-10-03T01:00:21.792Z,0.80
2022-10-03T01:03:07.660Z,0.80
2022-10-03T01:05:53.572Z,1.10
2022-10-03T01:08:34.987Z,1.00
2022-10-03T01:11:16.533Z,0.70
2022-10-03T01:13:46.802Z,0.70
2022-10-03T01:16:14.083Z,0.70
2022-10-03T01:18:56.745Z,0.80
2022-10-03T01:21:24.020Z,0.80
2022-10-03T01:24:13.102Z,0.90
2022-10-03T01:26:57.742Z,0.90
2022-10-03T01:29:58.906Z,0.60
2022-10-03T01:32:29.303Z,0.70
2022-10-03T01:35:15.459Z,0.83
2022-10-03T01:38:01.694Z,0.80
2022-10-03T01:40:38.192Z,1.07
2022-10-03T01:43:22.914Z,0.90
2022-10-03T01:46:05.607Z,0.70
2022-10-03T01:48:32.912Z,0.73
2022-10-03T01:51:06.224Z,0.90
2022-10-03T01:53:47.200Z,0.80
2022-10-03T01:56:34.429Z,1.20
2022-10-03T01:59:10.376Z,0.80
2022-10-03T02:01:40.818Z,0.80
2022-10-03T02:04:16.143Z,0.80
2022-10-03T02:06:45.917Z,0.70
2022-10-03T02:09:24.431Z,0.80
2022-10-03T02:11:51.699Z,0.80
2022-10-03T02:14:41.260Z,0.90
2022-10-03T02:17:34.703Z,0.80
2022-10-03T02:20:23.849Z,0.90
2022-10-03T02:22:53.290Z,1.00
2022-10-03T02:25:40.529Z,1.00
2022-10-03T02:28:10.955Z,1.00
2022-10-03T02:30:54.206Z,0.80
2022-10-03T02:33:33.687Z,0.70
2022-10-03T02:36:33.405Z,0.80
2022-10-03T02:39:09.661Z,0.70
2022-10-03T02:41:43.058Z,0.70
2022-10-03T02:44:21.452Z,0.80
2022-10-03T02:46:51.906Z,0.90
2022-10-03T02:49:19.174Z,0.80
2022-10-03T02:52:05.550Z,0.67
2022-10-03T02:54:45.056Z,1.00
2022-10-03T02:57:12.303Z,0.70
2022-10-03T02:59:40.248Z,0.60
2022-10-03T03:02:26.464Z,0.70
2022-10-03T03:05:05.689Z,0.90
2022-10-03T03:07:51.805Z,0.70
2022-10-03T03:10:21.946Z,0.70
2022-10-03T03:12:50.616Z,0.70
2022-10-03T03:15:37.201Z,0.70
2022-10-03T03:18:19.085Z,0.63
2022-10-03T03:21:05.150Z,0.80
2022-10-03T03:23:39.034Z,0.53
2022-10-03T03:26:09.351Z,0.70
2022-10-03T03:28:55.886Z,0.73
2022-10-03T03:31:31.010Z,0.70
2022-10-03T03:34:07.517Z,0.80
2022-10-03T03:36:39.749Z,0.90
2022-10-03T03:39:29.821Z,0.60
2022-10-03T03:41:57.066Z,0.70
2022-10-03T03:44:25.379Z,0.80
2022-10-03T03:47:04.793Z,0.73
2022-10-03T03:49:42.737Z,0.90
2022-10-03T03:52:19.118Z,0.90
2022-10-03T03:54:46.454Z,0.70
2022-10-03T03:57:34.018Z,0.97
2022-10-03T04:00:08.129Z,0.90
2022-10-03T04:02:38.381Z,0.87
2022-10-03T04:05:24.595Z,0.80
2022-10-03T04:08:12.170Z,0.80
2022-10-03T04:10:42.549Z,0.73
2022-10-03T04:13:19.015Z,0.73
2022-10-03T04:15:46.284Z,0.90
2022-10-03T04:18:41.258Z,0.90
2022-10-03T04:21:23.845Z,0.90
2022-10-03T04:23:56.240Z,0.80
2022-10-03T04:26:31.250Z,0.80
2022-10-03T04:29:04.592Z,0.90
2022-10-03T04:31:41.649Z,1.17
2022-10-03T04:34:09.267Z,0.80
2022-10-03T04:36:55.436Z,0.83
2022-10-03T04:39:42.309Z,0.70
2022-10-03T04:42:13.796Z,0.80
2022-10-03T04:44:47.786Z,0.70
2022-10-03T04:47:17.590Z,0.83
2022-10-03T04:49:57.028Z,0.80
2022-10-03T04:52:45.591Z,0.90
2022-10-03T04:55:29.312Z,1.00
2022-10-03T04:58:05.623Z,1.00
2022-10-03T05:00:33.496Z,1.00
2022-10-03T05:03:21.802Z,0.90
2022-10-03T05:05:51.886Z,0.90
2022-10-03T05:08:38.072Z,1.08
2022-10-03T05:11:12.347Z,0.97
2022-10-03T05:13:47.224Z,1.03
2022-10-03T05:16:14.575Z,0.80
2022-10-03T05:18:56.797Z,0.93
2022-10-03T05:21:36.181Z,0.90
2022-10-03T05:24:03.595Z,1.17
2022-10-03T05:26:49.607Z,1.17
2022-10-03T05:29:21.326Z,1.10
2022-10-03T05:31:56.317Z,1.03
2022-10-03T05:34:23.641Z,1.10
2022-10-03T05:37:12.919Z,1.00
2022-10-03T05:39:46.178Z,0.97
2022-10-03T05:42:23.002Z,0.97
2022-10-03T05:45:01.246Z,0.90
2022-10-03T05:47:47.928Z,1.10
2022-10-03T05:50:30.568Z,1.20
2022-10-03T05:53:06.970Z,1.10
2022-10-03T05:55:49.445Z,0.97
2022-10-03T05:58:26.926Z,0.90
2022-10-03T06:01:09.961Z,1.30
2022-10-03T06:04:06.106Z,1.20
2022-10-03T06:06:51.765Z,1.00
2022-10-03T06:09:37.624Z,0.90
2022-10-03T06:12:10.233Z,1.10
2022-10-03T06:14:56.551Z,1.00
2022-10-03T06:17:42.992Z,1.10
2022-10-03T06:20:22.525Z,0.90
2022-10-03T06:23:28.141Z,0.90
2022-10-03T06:26:15.083Z,1.00
2022-10-03T06:28:42.613Z,1.10
2022-10-03T06:31:31.880Z,0.87
2022-10-03T06:34:18.190Z,1.10
2022-10-03T06:36:51.503Z,1.00
2022-10-03T06:39:37.638Z,1.20
2022-10-03T06:42:23.531Z,0.90
2022-10-03T06:45:11.806Z,1.10
2022-10-03T06:47:57.582Z,0.90
2022-10-03T06:50:43.082Z,0.97
2022-10-03T06:53:10.390Z,1.00
2022-10-03T06:55:43.776Z,1.00
2022-10-03T06:58:29.921Z,1.10
2022-10-03T07:01:12.330Z,0.90
2022-10-03T07:03:42.846Z,0.80
2022-10-03T07:06:31.589Z,0.80
2022-10-03T07:09:07.807Z,1.10
2022-10-03T07:11:38.884Z,0.90
2022-10-03T07:14:36.971Z,1.00
2022-10-03T07:17:07.031Z,0.90
2022-10-03T07:19:37.367Z,1.20
2022-10-03T07:22:18.622Z,1.00
2022-10-03T07:25:08.189Z,0.90
2022-10-03T07:27:50.816Z,0.93
2022-10-03T07:30:20.225Z,0.90
2022-10-03T07:33:06.131Z,1.00
2022-10-03T07:35:54.848Z,1.03
2022-10-03T07:38:56.265Z,0.80
2022-10-03T07:41:43.422Z,0.90
2022-10-03T07:44:19.739Z,0.87
2022-10-03T07:46:53.215Z,0.90
2022-10-03T07:49:48.278Z,0.93
2022-10-03T07:52:23.379Z,0.90
2022-10-03T07:55:05.847Z,0.97
2022-10-03T07:57:36.394Z,0.90
2022-10-03T08:00:07.796Z,0.90
2022-10-03T08:02:59.760Z,0.90
2022-10-03T08:05:37.210Z,0.93
2022-10-03T08:08:23.167Z,1.03
2022-10-03T08:11:05.746Z,1.00
2022-10-03T08:13:51.966Z,1.07
2022-10-03T08:16:37.911Z,1.10
2022-10-03T08:19:17.440Z,1.00
2022-10-03T08:21:59.176Z,1.00
2022-10-03T08:24:29.461Z,1.08
2022-10-03T08:27:05.784Z,1.10
2022-10-03T08:29:48.279Z,1.07
2022-10-03T08:32:37.964Z,0.90
2022-10-03T08:35:08.331Z,1.00
2022-10-03T08:37:51.667Z,1.03
2022-10-03T08:40:37.985Z,1.37
2022-10-03T08:43:17.552Z,1.10
2022-10-03T08:45:44.787Z,0.83
2022-10-03T08:48:15.055Z,1.00
2022-10-03T08:50:42.820Z,1.07
2022-10-03T08:53:22.616Z,0.93
2022-10-03T08:55:59.154Z,1.00
2022-10-03T08:58:32.702Z,0.90
2022-10-03T09:01:18.878Z,1.03
2022-10-03T09:03:46.193Z,1.10
2022-10-03T09:06:33.143Z,1.00
2022-10-03T09:09:03.182Z,1.13
2022-10-03T09:11:35.074Z,1.10
2022-10-03T09:14:03.304Z,1.00
2022-10-03T09:16:39.775Z,1.03
2022-10-03T09:19:26.162Z,1.00
2022-10-03T09:21:56.437Z,1.00
2022-10-03T09:24:23.883Z,1.20
2022-10-03T09:27:03.303Z,1.03
2022-10-03T09:30:04.399Z,1.30
2022-10-03T09:32:45.568Z,0.93
2022-10-03T09:35:24.215Z,1.10
2022-10-03T09:38:08.914Z,0.90
2022-10-03T09:40:56.138Z,0.97
2022-10-03T09:43:42.151Z,1.17
2022-10-03T09:46:21.573Z,0.90
2022-10-03T09:49:13.481Z,0.80
2022-10-03T09:52:12.966Z,1.00
2022-10-03T09:54:58.410Z,0.90
2022-10-03T09:57:42.070Z,1.00
2022-10-03T10:00:15.649Z,0.93
2022-10-03T10:02:55.071Z,0.90
2022-10-03T10:05:31.705Z,0.93
2022-10-03T10:08:27.914Z,0.97
2022-10-03T10:11:01.316Z,0.90
2022-10-03T10:14:06.360Z,0.80
2022-10-03T10:16:37.054Z,0.90
2022-10-03T10:19:04.429Z,1.10
2022-10-03T10:21:31.767Z,1.00
2022-10-03T10:24:25.989Z,1.07
2022-10-03T10:27:12.325Z,0.80
2022-10-03T10:29:59.850Z,1.00
2022-10-03T10:32:27.149Z,1.10
2022-10-03T10:34:54.399Z,1.00
2022-10-03T10:37:45.444Z,1.20
2022-10-03T10:40:32.457Z,1.10
2022-10-03T10:43:38.064Z,1.03
2022-10-03T10:46:20.648Z,1.30
2022-10-03T10:49:01.429Z,1.43
2022-10-03T10:51:49.531Z,1.10
2022-10-03T10:54:31.930Z,1.00
2022-10-03T10:57:18.109Z,1.10
2022-10-03T11:00:00.806Z,0.90
2022-10-03T11:02:28.104Z,1.20
2022-10-03T11:05:29.730Z,1.00
2022-10-03T11:08:09.280Z,1.00
2022-10-03T11:10:39.076Z,0.87
2022-10-03T11:13:28.020Z,1.10
2022-10-03T11:16:16.123Z,1.10
2022-10-03T11:18:43.441Z,1.10
2022-10-03T11:21:13.895Z,1.30
2022-10-03T11:24:10.766Z,1.50
2022-10-03T11:26:41.482Z,1.03
2022-10-03T11:29:27.668Z,1.30
2022-10-03T11:32:13.520Z,1.17
2022-10-03T11:34:49.846Z,1.30
2022-10-03T11:37:29.401Z,1.10
2022-10-03T11:40:16.297Z,1.10
2022-10-03T11:42:43.576Z,0.93
2022-10-03T11:45:29.755Z,1.00
2022-10-03T11:48:01.260Z,0.93
2022-10-03T11:50:31.610Z,1.00
2022-10-03T11:53:08.075Z,1.40
2022-10-03T11:55:35.354Z,1.20
2022-10-03T11:58:26.220Z,1.30
2022-10-03T12:01:02.119Z,1.20
2022-10-03T12:03:32.210Z,1.20
2022-10-03T12:06:20.957Z,1.20
2022-10-03T12:08:57.843Z,1.40
2022-10-03T12:11:30.374Z,1.10
2022-10-03T12:14:11.409Z,1.20
2022-10-03T12:16:57.575Z,1.20
2022-10-03T12:19:43.049Z,1.13
2022-10-03T12:22:25.884Z,1.20
2022-10-03T12:24:56.462Z,1.20
2022-10-03T12:27:50.095Z,1.20
2022-10-03T12:30:19.651Z,1.10
2022-10-03T12:33:04.927Z,1.20
2022-10-03T12:35:38.068Z,1.00
2022-10-03T12:38:05.319Z,1.10
2022-10-03T12:40:36.240Z,1.13
2022-10-03T12:43:24.459Z,1.00
2022-10-03T12:45:56.292Z,1.20
2022-10-03T12:48:44.026Z,1.20
2022-10-03T12:51:14.089Z,1.20
2022-10-03T12:53:50.431Z,1.10
2022-10-03T12:56:21.509Z,1.10
2022-10-03T12:59:05.791Z,1.00
2022-10-03T13:01:43.562Z,1.30
2022-10-03T13:04:22.854Z,1.10
2022-10-03T13:07:08.482Z,1.10
2022-10-03T13:09:54.990Z,1.20
2022-10-03T13:12:33.910Z,1.10
2022-10-03T13:15:20.241Z,1.37
2022-10-03T13:17:58.595Z,1.20
2022-10-03T13:20:29.010Z,1.17
2022-10-03T13:23:04.077Z,1.00
2022-10-03T13:25:33.985Z,1.20
2022-10-03T13:28:04.391Z,1.40
2022-10-03T13:30:36.885Z,1.20
2022-10-03T13:33:12.538Z,1.20
2022-10-03T13:35:58.402Z,1.20
2022-10-03T13:38:26.411Z,1.20
2022-10-03T13:40:59.494Z,1.20
2022-10-03T13:43:35.735Z,1.20
2022-10-03T13:46:07.970Z,1.07
2022-10-03T13:48:36.883Z,1.00
2022-10-03T13:51:21.980Z,1.10
2022-10-03T13:53:56.877Z,1.23
2022-10-03T13:56:36.363Z,1.10
2022-10-03T13:59:23.962Z,1.00
2022-10-03T14:01:51.287Z,0.97
2022-10-03T14:04:25.665Z,0.97
2022-10-03T14:07:11.603Z,1.10
2022-10-03T14:09:43.954Z,1.00
2022-10-03T14:12:43.947Z,1.10
2022-10-03T14:15:27.472Z,1.03
2022-10-03T14:18:02.254Z,1.07
2022-10-03T14:20:33.078Z,1.10
2022-10-03T14:23:06.667Z,0.97
2022-10-03T14:25:40.119Z,0.90
2022-10-03T14:28:18.777Z,1.00
2022-10-03T14:31:05.948Z,1.10
2022-10-03T14:33:48.858Z,1.10
2022-10-03T14:36:16.176Z,1.13
2022-10-03T14:38:58.425Z,1.10
2022-10-03T14:41:29.481Z,1.03
2022-10-03T14:44:00.906Z,1.47
2022-10-03T14:46:30.115Z,0.93
2022-10-03T14:48:59.445Z,1.10
2022-10-03T14:51:26.688Z,1.20
2022-10-03T14:53:56.930Z,0.90
2022-10-03T14:56:25.854Z,1.03
2022-10-03T14:58:54.776Z,1.00
2022-10-03T15:01:26.042Z,0.90
2022-10-03T15:04:06.023Z,1.13
2022-10-03T15:06:33.291Z,1.00
2022-10-03T15:09:02.990Z,1.17
2022-10-03T15:11:35.561Z,1.00
2022-10-03T15:14:09.140Z,1.20
2022-10-03T15:16:40.460Z,1.10
2022-10-03T15:19:14.907Z,0.90
2022-10-03T15:21:43.985Z,1.00
2022-10-03T15:24:14.734Z,1.00
2022-10-03T15:26:42.648Z,1.00
2022-10-03T15:29:15.723Z,1.00
2022-10-03T15:31:46.080Z,1.20
2022-10-03T15:34:18.790Z,1.00
2022-10-03T15:36:56.055Z,1.07
2022-10-03T15:39:29.192Z,1.00
2022-10-03T15:42:04.539Z,0.90
2022-10-03T15:44:39.313Z,1.10
2022-10-03T15:47:09.946Z,1.03
2022-10-03T15:49:39.278Z,0.97
2022-10-03T15:52:42.839Z,1.00
2022-10-03T15:55:20.613Z,1.03
2022-10-03T15:57:53.632Z,0.90
2022-10-03T16:00:22.725Z,1.30
2022-10-03T16:02:54.760Z,1.27
2022-10-03T16:05:26.778Z,1.20
2022-10-03T16:08:01.467Z,1.00
2022-10-03T16:10:30.968Z,1.10
2022-10-03T16:13:19.027Z,1.47
2022-10-03T16:15:52.230Z,1.30
2022-10-03T16:18:19.562Z,0.90
2022-10-03T16:20:55.743Z,1.00
2022-10-03T16:23:36.692Z,1.03
2022-10-03T16:26:23.029Z,0.93
2022-10-03T16:28:59.680Z,1.07
2022-10-03T16:31:28.797Z,1.30
2022-10-03T16:34:00.690Z,1.00
2022-10-03T16:36:29.735Z,1.00
2022-10-03T16:39:04.637Z,1.23
2022-10-03T16:41:34.119Z,1.30
2022-10-03T16:44:03.033Z,1.13
2022-10-03T16:46:32.928Z,1.60
2022-10-03T16:49:20.950Z,1.40
2022-10-03T16:52:07.238Z,1.20
2022-10-03T16:54:34.609Z,1.30
2022-10-03T16:57:04.534Z,1.53
2022-10-03T16:59:32.151Z,0.97
2022-10-03T17:02:07.116Z,1.00
2022-10-03T17:04:37.546Z,1.10
2022-10-03T17:07:07.959Z,1.00
2022-10-03T17:09:42.056Z,1.00
2022-10-03T17:12:15.587Z,0.90
2022-10-03T17:14:44.563Z,1.43
2022-10-03T17:17:29.559Z,1.00
2022-10-03T17:20:00.595Z,1.00
2022-10-03T17:22:33.794Z,0.93
2022-10-03T17:25:06.623Z,1.00
2022-10-03T17:27:38.652Z,1.10
2022-10-03T17:30:25.919Z,1.10
2022-10-03T17:32:57.428Z,1.20
2022-10-03T17:35:43.519Z,0.90
2022-10-03T17:38:47.963Z,1.10
2022-10-03T17:41:18.664Z,1.13
2022-10-03T17:43:49.246Z,1.00
2022-10-03T17:46:27.518Z,1.00
2022-10-03T17:49:07.804Z,1.00
2022-10-03T17:51:36.618Z,1.20
2022-10-03T17:54:06.903Z,1.00
2022-10-03T17:56:35.081Z,1.23
2022-10-03T17:59:05.538Z,1.00
2022-10-03T18:01:36.309Z,0.90
2022-10-03T18:04:05.102Z,1.10
2022-10-03T18:06:44.885Z,1.40
2022-10-03T18:09:15.259Z,1.20
2022-10-03T18:11:43.913Z,1.10
2022-10-03T18:14:28.759Z,1.20
2022-10-03T18:17:04.752Z,1.10
2022-10-03T18:19:32.034Z,1.20
2022-10-03T18:22:19.782Z,1.07
2022-10-03T18:24:52.084Z,1.13
2022-10-03T18:27:20.147Z,1.00
2022-10-03T18:29:51.396Z,0.93
2022-10-03T18:32:22.538Z,1.40
2022-10-03T18:34:52.859Z,1.20
2022-10-03T18:37:29.227Z,1.07
2022-10-03T18:39:57.489Z,1.10
2022-10-03T18:42:27.822Z,1.03
2022-10-03T18:44:58.845Z,1.00
2022-10-03T18:47:32.069Z,1.00
2022-10-03T18:50:18.237Z,1.17
2022-10-03T18:52:52.358Z,1.17
2022-10-03T18:55:25.769Z,1.27
2022-10-03T18:58:05.849Z,1.20
2022-10-03T19:00:38.491Z,1.10
2022-10-03T19:03:15.229Z,1.23
2022-10-03T19:05:51.934Z,1.10
2022-10-03T19:08:22.799Z,1.00
2022-10-03T19:11:02.934Z,1.03
2022-10-03T19:13:45.463Z,0.97
2022-10-03T19:16:12.914Z,1.40
2022-10-03T19:18:57.170Z,1.20
2022-10-03T19:21:24.982Z,1.03
2022-10-03T19:23:55.084Z,0.90
2022-10-03T19:26:24.334Z,1.03
2022-10-03T19:28:57.386Z,1.20
2022-10-03T19:31:32.122Z,1.20
2022-10-03T19:34:02.685Z,1.20
2022-10-03T19:36:32.066Z,1.10
2022-10-03T19:39:00.279Z,1.27
2022-10-03T19:41:31.521Z,1.37
2022-10-03T19:44:08.856Z,1.30
2022-10-03T19:46:43.839Z,1.23
2022-10-03T19:49:11.087Z,1.37
2022-10-03T19:51:38.632Z,1.30
2022-10-03T19:54:12.763Z,1.50
2022-10-03T19:56:40.200Z,1.40
2022-10-03T19:59:12.842Z,1.20
2022-10-03T20:01:47.884Z,1.40
2022-10-03T20:04:20.090Z,1.30
2022-10-03T20:06:49.290Z,1.40
2022-10-03T20:09:36.434Z,1.27
2022-10-03T20:12:07.259Z,1.03
2022-10-03T20:14:36.121Z,1.40
2022-10-03T20:17:11.182Z,1.30
2022-10-03T20:19:58.514Z,1.40
2022-10-03T20:22:27.746Z,1.30
2022-10-03T20:24:55.567Z,1.13
2022-10-03T20:27:25.843Z,1.20
2022-10-03T20:30:01.035Z,1.20
2022-10-03T20:32:28.920Z,1.50
2022-10-03T20:34:58.442Z,1.33
2022-10-03T20:37:26.342Z,1.40
2022-10-03T20:39:57.322Z,1.40
2022-10-03T20:42:28.708Z,1.97
2022-10-03T20:44:59.053Z,1.33
2022-10-03T20:47:32.426Z,1.20
2022-10-03T20:50:02.135Z,1.43
2022-10-03T20:52:29.643Z,1.60
2022-10-03T20:55:01.271Z,1.80
2022-10-03T20:57:30.393Z,1.40
2022-10-03T21:00:00.755Z,1.47
2022-10-03T21:02:28.251Z,1.40
2022-10-03T21:05:04.748Z,1.60
2022-10-03T21:07:32.041Z,1.60
2022-10-03T21:10:02.342Z,1.40
2022-10-03T21:12:33.334Z,1.37
2022-10-03T21:15:07.631Z,1.50
2022-10-03T21:17:36.324Z,1.70
2022-10-03T21:20:08.925Z,1.40
2022-10-03T21:22:36.644Z,1.50
2022-10-03T21:25:05.978Z,1.33
2022-10-03T21:27:34.515Z,1.60
2022-10-03T21:30:03.574Z,1.10
2022-10-03T21:32:50.010Z,1.73
2022-10-03T21:35:36.599Z,1.57
2022-10-03T21:38:26.851Z,1.80
2022-10-03T21:41:00.998Z,1.50
2022-10-03T21:43:31.374Z,1.20
2022-10-03T21:45:58.693Z,1.92
2022-10-03T21:48:33.378Z,1.80
2022-10-03T21:51:01.982Z,2.13
2022-10-03T21:53:38.281Z,1.93
2022-10-03T21:56:25.476Z,1.80
2022-10-03T21:59:11.110Z,1.80
2022-10-03T22:01:53.840Z,1.60
2022-10-03T22:04:29.769Z,1.40
2022-10-03T22:06:57.009Z,2.10
2022-10-03T22:09:24.301Z,1.47
2022-10-03T22:11:56.345Z,1.53
2022-10-03T22:14:30.462Z,1.40
2022-10-03T22:17:05.118Z,1.27
2022-10-03T22:19:43.924Z,1.70
2022-10-03T22:22:16.740Z,1.30
2022-10-03T22:24:43.997Z,1.60
2022-10-03T22:27:20.317Z,1.87
2022-10-03T22:29:53.180Z,1.60
2022-10-03T22:32:27.915Z,1.40
2022-10-03T22:34:55.198Z,1.40
2022-10-03T22:37:22.629Z,1.33
2022-10-03T22:39:50.978Z,1.80
2022-10-03T22:42:19.040Z,1.60
2022-10-03T22:44:48.731Z,1.53
2022-10-03T22:47:22.125Z,1.47
2022-10-03T22:49:51.720Z,1.80
2022-10-03T22:52:25.319Z,1.80
2022-10-03T22:54:53.212Z,1.57
2022-10-03T22:57:20.643Z,1.50
2022-10-03T22:59:54.694Z,1.40
2022-10-03T23:02:27.623Z,1.40
2022-10-03T23:04:57.429Z,1.77
2022-10-03T23:07:37.122Z,1.50
2022-10-03T23:10:13.126Z,1.83
2022-10-03T23:12:42.804Z,1.77
2022-10-03T23:15:10.891Z,1.50
2022-10-03T23:17:44.286Z,1.37
2022-10-03T23:20:34.918Z,1.30
2022-10-03T23:23:04.858Z,1.70
2022-10-03T23:25:34.076Z,1.60
2022-10-03T23:28:01.425Z,1.60
2022-10-03T23:30:34.565Z,1.47
2022-10-03T23:33:02.136Z,1.40
2022-10-03T23:35:32.490Z,1.90
2022-10-03T23:38:00.556Z,1.40
2022-10-03T23:40:33.661Z,1.63
2022-10-03T23:43:04.605Z,1.40
2022-10-03T23:45:34.428Z,1.87
2022-10-03T23:48:01.723Z,1.60
2022-10-03T23:50:37.766Z,1.53
2022-10-03T23:53:05.108Z,1.47
2022-10-03T23:55:35.690Z,1.47
2022-10-03T23:58:03.681Z,1.50
